Time;durP1;ratioP1;P1;durP2;ratioP2;P2;SDS_P1;SDS_P2;PMS_P1;PMS_P2;Temp;Humidity;BMP_temperature;BMP_pressure;BME280_temperature;BME280_humidity;BME280_pressure;Samples;Min_cycle;Max_cycle;Signal;HPM_P1;HPM_P2
2022/03/26 00:01:39;;;;;;;11.25;7.90;;;;;;;;;;5048206;28;20025;-46
2022/03/26 00:04:06;;;;;;;16.52;7.90;;;;;;;;;;5036648;28;20199;-48
2022/03/26 00:06:32;;;;;;;13.98;7.68;;;;;;;;;;5048058;28;20111;-47
2022/03/26 00:08:59;;;;;;;13.65;7.50;;;;;;;;;;5047781;28;20560;-51
2022/03/26 00:11:25;;;;;;;13.07;7.80;;;;;;;;;;5047992;28;20108;-46
2022/03/26 00:13:51;;;;;;;13.93;7.40;;;;;;;;;;5047769;28;20110;-51
2022/03/26 00:16:17;;;;;;;15.57;8.68;;;;;;;;;;5047890;28;20028;-49
2022/03/26 00:18:43;;;;;;;16.45;8.18;;;;;;;;;;5046707;28;20116;-49
2022/03/26 00:21:10;;;;;;;15.00;8.05;;;;;;;;;;5047878;28;20025;-47
2022/03/26 00:23:36;;;;;;;16.20;7.70;;;;;;;;;;5048031;28;20143;-48
2022/03/26 00:26:02;;;;;;;12.30;7.20;;;;;;;;;;5045680;28;20144;-48
2022/03/26 00:28:29;;;;;;;13.88;7.25;;;;;;;;;;5027885;28;20088;-48
2022/03/26 00:30:55;;;;;;;15.40;7.80;;;;;;;;;;5042782;28;20452;-46
2022/03/26 00:33:21;;;;;;;13.52;7.43;;;;;;;;;;5047663;28;20107;-47
2022/03/26 00:35:47;;;;;;;13.00;6.88;;;;;;;;;;5047528;28;20124;-51
2022/03/26 00:38:13;;;;;;;14.63;7.40;;;;;;;;;;5047575;28;20119;-47
2022/03/26 00:40:40;;;;;;;15.05;8.32;;;;;;;;;;5046457;28;20039;-50
2022/03/26 00:43:07;;;;;;;14.20;7.82;;;;;;;;;;5047466;28;20120;-48
2022/03/26 00:45:34;;;;;;;15.95;8.25;;;;;;;;;;5042055;28;20052;-48
2022/03/26 00:48:01;;;;;;;13.63;7.25;;;;;;;;;;5047342;28;20124;-48
2022/03/26 00:50:27;;;;;;;13.95;7.55;;;;;;;;;;5047549;28;20539;-48
2022/03/26 00:52:54;;;;;;;15.30;8.32;;;;;;;;;;5046987;28;20110;-46
2022/03/26 00:55:20;;;;;;;15.48;7.85;;;;;;;;;;5047211;28;20031;-47
2022/03/26 00:57:46;;;;;;;13.18;6.90;;;;;;;;;;5046459;28;20028;-49
2022/03/26 01:00:12;;;;;;;11.77;7.70;;;;;;;;;;5046914;28;20167;-47
2022/03/26 01:02:39;;;;;;;13.63;7.55;;;;;;;;;;5047705;28;20045;-53
2022/03/26 01:05:05;;;;;;;12.23;7.35;;;;;;;;;;5047847;28;20025;-50
2022/03/26 01:07:32;;;;;;;12.38;7.28;;;;;;;;;;5046670;28;20185;-47
2022/03/26 01:09:59;;;;;;;17.85;8.48;;;;;;;;;;5047415;28;20448;-48
2022/03/26 01:12:26;;;;;;;12.43;7.03;;;;;;;;;;5041957;28;20021;-48
2022/03/26 01:14:53;;;;;;;17.50;8.65;;;;;;;;;;5047885;28;20082;-47
2022/03/26 01:17:19;;;;;;;13.07;6.95;;;;;;;;;;5050720;28;20546;-50
2022/03/26 01:19:46;;;;;;;13.88;7.45;;;;;;;;;;5051034;28;20067;-50
2022/03/26 01:22:12;;;;;;;16.50;8.35;;;;;;;;;;5051283;28;20112;-47
2022/03/26 01:24:38;;;;;;;13.35;7.65;;;;;;;;;;5051190;28;20494;-51
2022/03/26 01:27:06;;;;;;;14.27;7.70;;;;;;;;;;5050648;28;20060;-47
2022/03/26 01:29:34;;;;;;;11.43;7.55;;;;;;;;;;5049494;28;20048;-49
2022/03/26 01:32:00;;;;;;;10.65;7.07;;;;;;;;;;5048681;28;20628;-50
2022/03/26 01:34:27;;;;;;;12.05;7.60;;;;;;;;;;5050598;28;20033;-53
2022/03/26 01:36:53;;;;;;;12.38;7.70;;;;;;;;;;5050639;28;20029;-48
2022/03/26 01:39:22;;;;;;;13.60;7.68;;;;;;;;;;5050718;28;20064;-50
2022/03/26 01:41:48;;;;;;;14.55;7.47;;;;;;;;;;5050693;28;20024;-48
2022/03/26 01:44:17;;;;;;;12.13;6.88;;;;;;;;;;5043568;28;20124;-46
2022/03/26 01:46:46;;;;;;;13.95;7.15;;;;;;;;;;5048294;28;20028;-46
2022/03/26 01:49:12;;;;;;;13.07;8.00;;;;;;;;;;5050253;28;20483;-49
2022/03/26 01:51:38;;;;;;;11.23;7.13;;;;;;;;;;5050215;28;20028;-50
2022/03/26 01:54:04;;;;;;;15.48;7.70;;;;;;;;;;5049901;28;20021;-51
2022/03/26 01:56:30;;;;;;;12.80;7.05;;;;;;;;;;5049897;28;20111;-48
2022/03/26 01:58:57;;;;;;;14.18;7.47;;;;;;;;;;5049686;28;20021;-48
2022/03/26 02:01:22;;;;;;;11.20;6.30;;;;;;;;;;5049282;28;20036;-47
2022/03/26 02:03:50;;;;;;;13.05;7.07;;;;;;;;;;5050003;28;20021;-49
2022/03/26 02:06:19;;;;;;;12.80;7.13;;;;;;;;;;5049612;28;20028;-49
2022/03/26 02:08:45;;;;;;;14.43;8.17;;;;;;;;;;5049634;28;20448;-46
2022/03/26 02:11:11;;;;;;;11.02;6.88;;;;;;;;;;5049718;28;20132;-46
2022/03/26 02:13:57;;;;;;;11.27;6.53;;;;;;;;;;5049744;28;20104;-49
2022/03/26 02:16:24;;;;;;;11.45;6.72;;;;;;;;;;5043588;28;20028;-51
2022/03/26 02:18:51;;;;;;;13.02;7.25;;;;;;;;;;5049040;28;20464;-47
2022/03/26 02:21:17;;;;;;;14.05;7.47;;;;;;;;;;5050135;28;20021;-47
2022/03/26 02:23:44;;;;;;;12.45;7.50;;;;;;;;;;5049871;28;20021;-46
2022/03/26 02:26:10;;;;;;;14.80;7.85;;;;;;;;;;5049211;28;20033;-49
2022/03/26 02:28:36;;;;;;;12.15;7.13;;;;;;;;;;5049500;28;20064;-48
2022/03/26 02:31:02;;;;;;;13.50;7.25;;;;;;;;;;5049991;28;20024;-51
2022/03/26 02:33:28;;;;;;;11.00;7.38;;;;;;;;;;5034807;28;20035;-50
2022/03/26 02:35:55;;;;;;;13.35;7.00;;;;;;;;;;5049612;28;20103;-48
2022/03/26 02:38:23;;;;;;;11.85;7.18;;;;;;;;;;5049608;28;20225;-48
2022/03/26 02:40:49;;;;;;;12.10;6.65;;;;;;;;;;5047558;28;20052;-46
2022/03/26 02:43:15;;;;;;;14.00;7.90;;;;;;;;;;5049500;28;20368;-51
2022/03/26 02:45:45;;;;;;;13.25;7.82;;;;;;;;;;5049004;28;20505;-50
2022/03/26 02:48:12;;;;;;;12.43;7.40;;;;;;;;;;5029362;28;20083;-48
2022/03/26 02:50:39;;;;;;;11.75;6.97;;;;;;;;;;5044946;28;20494;-46
2022/03/26 02:53:06;;;;;;;13.23;7.10;;;;;;;;;;5049685;28;20499;-46
2022/03/26 02:55:32;;;;;;;11.27;7.47;;;;;;;;;;5048990;28;20044;-48
2022/03/26 02:57:58;;;;;;;15.30;8.27;;;;;;;;;;5049696;28;20554;-47
2022/03/26 03:00:24;;;;;;;11.93;7.65;;;;;;;;;;5049428;28;20550;-47
2022/03/26 03:02:50;;;;;;;15.38;8.43;;;;;;;;;;5043634;28;20057;-48
2022/03/26 03:05:16;;;;;;;13.38;7.88;;;;;;;;;;5049368;28;20439;-48
2022/03/26 03:07:42;;;;;;;14.63;7.85;;;;;;;;;;5049227;28;20116;-46
2022/03/26 03:10:08;;;;;;;14.20;7.40;;;;;;;;;;5048729;28;20036;-48
2022/03/26 03:12:34;;;;;;;14.25;7.78;;;;;;;;;;5048546;28;20075;-45
2022/03/26 03:15:01;;;;;;;13.57;7.97;;;;;;;;;;5048883;28;20029;-46
2022/03/26 03:17:28;;;;;;;11.90;7.82;;;;;;;;;;5047415;28;20041;-48
2022/03/26 03:19:54;;;;;;;13.20;7.45;;;;;;;;;;5048840;28;20047;-46
2022/03/26 03:22:20;;;;;;;13.80;7.60;;;;;;;;;;5048605;28;20423;-52
2022/03/26 03:24:46;;;;;;;13.50;8.88;;;;;;;;;;5048634;28;20606;-50
2022/03/26 03:27:12;;;;;;;12.88;7.57;;;;;;;;;;5048196;28;20108;-48
2022/03/26 03:29:38;;;;;;;12.25;7.13;;;;;;;;;;5048725;28;20025;-47
2022/03/26 03:32:04;;;;;;;12.65;7.90;;;;;;;;;;5045894;28;20066;-49
2022/03/26 03:34:30;;;;;;;11.48;7.15;;;;;;;;;;5048458;28;20107;-48
2022/03/26 03:36:57;;;;;;;11.93;7.72;;;;;;;;;;5047892;28;20025;-48
2022/03/26 03:39:23;;;;;;;12.88;8.45;;;;;;;;;;5048494;28;20032;-46
2022/03/26 03:41:49;;;;;;;16.27;8.18;;;;;;;;;;5048021;28;20118;-49
2022/03/26 03:44:16;;;;;;;11.05;7.22;;;;;;;;;;5048218;28;20475;-48
2022/03/26 03:46:42;;;;;;;12.60;7.22;;;;;;;;;;5044465;28;20115;-48
2022/03/26 03:49:08;;;;;;;13.45;8.13;;;;;;;;;;5048035;28;20037;-48
2022/03/26 03:51:34;;;;;;;13.75;8.00;;;;;;;;;;5047662;28;20025;-49
2022/03/26 03:54:00;;;;;;;12.70;8.35;;;;;;;;;;5047384;28;20059;-51
2022/03/26 03:56:26;;;;;;;12.38;8.45;;;;;;;;;;5032641;28;20112;-47
2022/03/26 03:58:53;;;;;;;11.38;8.00;;;;;;;;;;5047990;28;20120;-48
2022/03/26 04:01:19;;;;;;;14.95;8.00;;;;;;;;;;5048056;28;20617;-50
2022/03/26 04:03:45;;;;;;;16.55;9.40;;;;;;;;;;5047914;28;20032;-48
2022/03/26 04:06:11;;;;;;;15.60;8.73;;;;;;;;;;5048205;28;20032;-46
2022/03/26 04:08:37;;;;;;;12.85;8.18;;;;;;;;;;5047554;28;20047;-49
2022/03/26 04:11:03;;;;;;;13.70;7.30;;;;;;;;;;5028508;28;20041;-50
2022/03/26 04:13:29;;;;;;;12.43;7.43;;;;;;;;;;5044549;28;20120;-48
2022/03/26 04:15:55;;;;;;;15.50;8.50;;;;;;;;;;5047554;28;20058;-48
2022/03/26 04:18:21;;;;;;;13.82;8.63;;;;;;;;;;5047221;28;20032;-51
2022/03/26 04:20:47;;;;;;;15.02;8.88;;;;;;;;;;5047748;28;20040;-49
2022/03/26 04:23:13;;;;;;;15.15;8.93;;;;;;;;;;5047296;28;20025;-46
2022/03/26 04:25:39;;;;;;;15.52;9.48;;;;;;;;;;5043462;28;20029;-47
2022/03/26 04:28:05;;;;;;;13.63;8.02;;;;;;;;;;5047273;28;20629;-45
2022/03/26 04:30:31;;;;;;;16.02;9.90;;;;;;;;;;5047851;28;20162;-45
2022/03/26 04:32:57;;;;;;;14.48;8.82;;;;;;;;;;5046963;28;20139;-48
2022/03/26 04:35:26;;;;;;;12.65;7.75;;;;;;;;;;5047859;28;20124;-47
2022/03/26 04:37:55;;;;;;;15.25;9.48;;;;;;;;;;5047421;28;20930;-46
2022/03/26 04:40:22;;;;;;;12.77;8.85;;;;;;;;;;5043512;28;20551;-45
2022/03/26 04:42:48;;;;;;;14.32;9.30;;;;;;;;;;5047000;28;20547;-45
2022/03/26 04:45:14;;;;;;;17.05;9.85;;;;;;;;;;5047542;28;20104;-45
2022/03/26 04:47:40;;;;;;;15.93;9.32;;;;;;;;;;5047288;28;20406;-46
2022/03/26 04:50:07;;;;;;;14.85;8.70;;;;;;;;;;5049538;28;20037;-51
2022/03/26 04:52:33;;;;;;;16.33;9.25;;;;;;;;;;5051824;28;20029;-54
2022/03/26 04:54:59;;;;;;;14.88;8.75;;;;;;;;;;5040734;28;20068;-47
2022/03/26 04:57:26;;;;;;;16.58;10.07;;;;;;;;;;5050490;28;20159;-47
2022/03/26 04:59:52;;;;;;;13.95;9.00;;;;;;;;;;5051831;28;20052;-47
2022/03/26 05:02:18;;;;;;;15.18;8.93;;;;;;;;;;5051386;28;20029;-46
2022/03/26 05:04:44;;;;;;;15.60;10.27;;;;;;;;;;5051168;28;20028;-47
2022/03/26 05:09:55;;;;;;;14.70;9.70;;;;;;;;;;5051268;28;20087;-50
2022/03/26 05:12:21;;;;;;;16.25;9.75;;;;;;;;;;5049917;28;20033;-51
2022/03/26 05:14:47;;;;;;;17.58;10.10;;;;;;;;;;5050484;28;20091;-45
2022/03/26 05:17:13;;;;;;;63.67;33.67;;;;;;;;;;5051259;28;20033;-46
2022/03/26 05:19:39;;;;;;;64.35;35.45;;;;;;;;;;5050109;28;20035;-46
2022/03/26 05:22:06;;;;;;;75.07;37.88;;;;;;;;;;5050186;28;20029;-49
2022/03/26 05:24:33;;;;;;;61.42;34.45;;;;;;;;;;5047919;28;20044;-48
2022/03/26 05:26:59;;;;;;;61.00;33.15;;;;;;;;;;5042706;28;20078;-50
2022/03/26 05:29:25;;;;;;;56.10;32.45;;;;;;;;;;5040867;28;20072;-47
2022/03/26 05:31:51;;;;;;;56.13;34.65;;;;;;;;;;5043326;28;20041;-46
2022/03/26 05:34:17;;;;;;;56.10;34.42;;;;;;;;;;5042395;28;20056;-48
2022/03/26 05:36:43;;;;;;;54.65;33.83;;;;;;;;;;5042358;28;20423;-51
2022/03/26 05:39:09;;;;;;;55.70;35.00;;;;;;;;;;5040582;28;20060;-46
2022/03/26 05:41:35;;;;;;;58.05;33.92;;;;;;;;;;5045716;28;20086;-49
2022/03/26 05:44:02;;;;;;;56.85;36.45;;;;;;;;;;5040525;28;20041;-47
2022/03/26 05:46:28;;;;;;;52.72;33.97;;;;;;;;;;5043548;28;20457;-49
2022/03/26 05:48:54;;;;;;;54.28;34.60;;;;;;;;;;5039733;28;20124;-46
2022/03/26 05:51:20;;;;;;;59.10;34.85;;;;;;;;;;5042767;28;20558;-49
2022/03/26 05:53:49;;;;;;;56.10;35.63;;;;;;;;;;5038844;28;20480;-51
2022/03/26 05:56:15;;;;;;;58.38;36.58;;;;;;;;;;5046407;28;20033;-49
2022/03/26 05:58:41;;;;;;;66.55;40.05;;;;;;;;;;5050298;28;20117;-48
2022/03/26 06:01:07;;;;;;;68.05;40.42;;;;;;;;;;5049792;28;20033;-51
2022/03/26 06:03:33;;;;;;;64.57;39.28;;;;;;;;;;5048755;28;20029;-51
2022/03/26 06:06:00;;;;;;;62.95;37.67;;;;;;;;;;5036832;28;20932;-48
2022/03/26 06:08:27;;;;;;;60.47;37.28;;;;;;;;;;5048979;28;20480;-48
2022/03/26 06:10:53;;;;;;;61.10;37.70;;;;;;;;;;5049276;28;20551;-51
2022/03/26 06:13:18;;;;;;;63.90;37.42;;;;;;;;;;5046704;28;20104;-50
2022/03/26 06:15:45;;;;;;;61.50;37.10;;;;;;;;;;5040252;28;20021;-56
2022/03/26 06:18:15;;;;;;;56.38;36.08;;;;;;;;;;5034835;28;20037;-48
2022/03/26 06:20:42;;;;;;;59.92;36.35;;;;;;;;;;5034508;28;20553;-48
2022/03/26 06:23:08;;;;;;;57.88;36.92;;;;;;;;;;5038468;28;20033;-50
2022/03/26 06:25:34;;;;;;;55.53;33.75;;;;;;;;;;5038846;28;20112;-52
2022/03/26 06:28:00;;;;;;;54.10;33.83;;;;;;;;;;5039663;28;20047;-52
2022/03/26 06:30:26;;;;;;;53.63;33.72;;;;;;;;;;5041010;28;20047;-49
2022/03/26 06:32:52;;;;;;;51.85;33.65;;;;;;;;;;5043832;28;20048;-50
2022/03/26 06:35:19;;;;;;;54.10;33.08;;;;;;;;;;5038723;28;20480;-48
2022/03/26 06:37:45;;;;;;;58.13;34.45;;;;;;;;;;5040279;28;20449;-48
2022/03/26 06:40:11;;;;;;;68.00;32.88;;;;;;;;;;5036167;28;20053;-47
2022/03/26 06:42:37;;;;;;;73.90;35.13;;;;;;;;;;5038947;28;20111;-49
2022/03/26 06:45:03;;;;;;;65.65;39.42;;;;;;;;;;5037902;28;20067;-48
2022/03/26 06:47:31;;;;;;;60.70;38.55;;;;;;;;;;5038068;28;20061;-49
2022/03/26 06:49:57;;;;;;;61.70;39.05;;;;;;;;;;5038238;28;20018;-47
2022/03/26 06:52:24;;;;;;;66.15;38.72;;;;;;;;;;5035368;28;20190;-51
2022/03/26 06:54:50;;;;;;;65.97;37.92;;;;;;;;;;5036248;28;20068;-48
2022/03/26 06:57:16;;;;;;;60.83;39.50;;;;;;;;;;5032331;28;20021;-49
2022/03/26 06:59:42;;;;;;;66.07;37.85;;;;;;;;;;5038009;28;20045;-53
2022/03/26 07:02:08;;;;;;;72.25;38.47;;;;;;;;;;5037482;28;20122;-53
2022/03/26 07:04:34;;;;;;;65.55;39.03;;;;;;;;;;5043036;28;20021;-48
2022/03/26 07:07:00;;;;;;;69.10;36.97;;;;;;;;;;5036656;28;20029;-50
2022/03/26 07:09:29;;;;;;;66.55;38.35;;;;;;;;;;5041893;28;20435;-47
2022/03/26 07:11:55;;;;;;;59.72;37.33;;;;;;;;;;5037846;28;20156;-49
2022/03/26 07:14:22;;;;;;;60.05;35.03;;;;;;;;;;5037739;28;20148;-48
2022/03/26 07:16:48;;;;;;;56.53;35.20;;;;;;;;;;5036225;28;20029;-48
2022/03/26 07:19:14;;;;;;;57.72;35.97;;;;;;;;;;5035218;28;20579;-50
2022/03/26 07:21:40;;;;;;;59.35;35.95;;;;;;;;;;5036896;28;20030;-48
2022/03/26 07:24:06;;;;;;;56.88;33.42;;;;;;;;;;5039749;28;20029;-52
2022/03/26 07:26:33;;;;;;;55.20;32.38;;;;;;;;;;5037527;28;20057;-53
2022/03/26 07:28:59;;;;;;;54.63;32.20;;;;;;;;;;5038203;28;20055;-48
2022/03/26 07:31:25;;;;;;;56.20;33.75;;;;;;;;;;5036275;28;20036;-49
2022/03/26 07:33:52;;;;;;;56.40;33.80;;;;;;;;;;5034835;28;21353;-49
2022/03/26 07:36:18;;;;;;;50.58;32.10;;;;;;;;;;5038302;28;20168;-48
2022/03/26 07:38:45;;;;;;;55.70;30.58;;;;;;;;;;5035820;28;20017;-49
2022/03/26 07:41:11;;;;;;;60.05;33.90;;;;;;;;;;5037584;28;20467;-48
2022/03/26 07:43:37;;;;;;;55.80;33.05;;;;;;;;;;5045124;28;20450;-47
2022/03/26 07:46:04;;;;;;;56.78;31.30;;;;;;;;;;5042694;28;20433;-52
2022/03/26 07:48:30;;;;;;;58.28;32.40;;;;;;;;;;5036982;28;20395;-46
2022/03/26 07:50:57;;;;;;;65.47;30.98;;;;;;;;;;5046818;28;20033;-48
2022/03/26 07:53:25;;;;;;;46.17;29.02;;;;;;;;;;5046628;28;20087;-50
2022/03/26 07:55:52;;;;;;;53.08;30.90;;;;;;;;;;5038069;28;20509;-50
2022/03/26 07:58:18;;;;;;;52.15;28.67;;;;;;;;;;5044826;28;20056;-59
2022/03/26 08:00:44;;;;;;;50.65;28.48;;;;;;;;;;5047725;28;20056;-60
2022/03/26 08:03:10;;;;;;;51.08;26.77;;;;;;;;;;5036418;28;20395;-61
2022/03/26 08:05:37;;;;;;;56.03;30.05;;;;;;;;;;5039664;28;20393;-61
2022/03/26 08:08:03;;;;;;;51.17;26.38;;;;;;;;;;5043546;28;20158;-60
2022/03/26 08:10:29;;;;;;;50.90;27.20;;;;;;;;;;5041580;28;20052;-60
2022/03/26 08:12:56;;;;;;;53.15;27.77;;;;;;;;;;5048814;28;20528;-60
2022/03/26 08:15:22;;;;;;;49.15;26.92;;;;;;;;;;5047813;28;20033;-61
2022/03/26 08:17:48;;;;;;;51.83;28.60;;;;;;;;;;5047812;28;20500;-61
2022/03/26 08:20:15;;;;;;;50.08;25.83;;;;;;;;;;5047706;28;20029;-61
2022/03/26 08:22:41;;;;;;;46.92;25.73;;;;;;;;;;5047897;28;20479;-61
2022/03/26 08:25:10;;;;;;;45.72;26.88;;;;;;;;;;5035468;28;20484;-61
2022/03/26 08:27:36;;;;;;;47.67;26.63;;;;;;;;;;5047448;28;20049;-61
2022/03/26 08:30:03;;;;;;;42.30;25.23;;;;;;;;;;5048302;28;20017;-61
2022/03/26 08:32:29;;;;;;;45.55;24.75;;;;;;;;;;5047323;28;20029;-61
2022/03/26 08:34:55;;;;;;;39.92;26.30;;;;;;;;;;5048246;28;20052;-61
2022/03/26 08:37:22;;;;;;;44.00;23.88;;;;;;;;;;5047798;28;20530;-61
2022/03/26 08:39:48;;;;;;;43.45;24.42;;;;;;;;;;5048479;28;20033;-61
2022/03/26 08:42:14;;;;;;;40.10;25.40;;;;;;;;;;5048336;28;20029;-61
2022/03/26 08:44:40;;;;;;;43.42;25.27;;;;;;;;;;5039286;28;20026;-61
2022/03/26 08:47:07;;;;;;;41.95;24.25;;;;;;;;;;5040156;28;20518;-62
2022/03/26 08:49:34;;;;;;;46.30;25.83;;;;;;;;;;5047221;28;20434;-62
2022/03/26 08:52:00;;;;;;;40.65;23.75;;;;;;;;;;5046254;28;20037;-61
2022/03/26 08:54:26;;;;;;;51.55;25.80;;;;;;;;;;5047123;28;20029;-62
2022/03/26 08:56:53;;;;;;;39.83;24.75;;;;;;;;;;5043429;28;20029;-61
2022/03/26 08:59:20;;;;;;;38.60;23.30;;;;;;;;;;5047031;28;20037;-61
2022/03/26 09:01:46;;;;;;;40.55;23.05;;;;;;;;;;5046628;28;20437;-61
2022/03/26 09:04:14;;;;;;;40.80;23.42;;;;;;;;;;5045092;28;20328;-62
2022/03/26 09:06:40;;;;;;;39.22;23.45;;;;;;;;;;5045715;28;20033;-62
2022/03/26 09:09:06;;;;;;;41.78;22.92;;;;;;;;;;5046755;28;20033;-61
2022/03/26 09:11:34;;;;;;;39.75;23.90;;;;;;;;;;5028855;28;20060;-62
2022/03/26 09:14:00;;;;;;;36.50;23.02;;;;;;;;;;5046228;28;20025;-62
2022/03/26 09:16:26;;;;;;;37.28;22.98;;;;;;;;;;5046745;28;20036;-63
2022/03/26 09:18:52;;;;;;;44.70;23.35;;;;;;;;;;5037891;28;20024;-62
2022/03/26 09:21:19;;;;;;;45.00;23.20;;;;;;;;;;5045955;28;20029;-61
2022/03/26 09:23:45;;;;;;;38.78;23.35;;;;;;;;;;5046203;28;20036;-61
2022/03/26 09:26:11;;;;;;;33.85;23.02;;;;;;;;;;5046583;28;20093;-61
2022/03/26 09:28:38;;;;;;;39.08;23.90;;;;;;;;;;5039376;28;20824;-61
2022/03/26 09:31:04;;;;;;;34.17;21.85;;;;;;;;;;5043960;28;20042;-61
2022/03/26 09:33:30;;;;;;;41.67;23.10;;;;;;;;;;5037526;28;20071;-61
2022/03/26 09:35:56;;;;;;;35.08;21.20;;;;;;;;;;5032953;28;20820;-62
2022/03/26 09:38:22;;;;;;;39.13;21.58;;;;;;;;;;5048587;28;20135;-61
2022/03/26 09:40:49;;;;;;;36.85;22.73;;;;;;;;;;5047205;28;20520;-61
2022/03/26 09:43:15;;;;;;;35.22;22.67;;;;;;;;;;5038716;28;20136;-62
2022/03/26 09:45:41;;;;;;;35.05;21.85;;;;;;;;;;5046517;28;20033;-61
2022/03/26 09:48:08;;;;;;;44.97;22.40;;;;;;;;;;5039926;28;21563;-64
2022/03/26 09:50:34;;;;;;;30.95;20.52;;;;;;;;;;5038976;28;20052;-61
2022/03/26 09:53:00;;;;;;;39.28;21.65;;;;;;;;;;5047211;28;20064;-59
2022/03/26 09:55:27;;;;;;;37.83;19.90;;;;;;;;;;5042028;28;20048;-61
2022/03/26 09:57:53;;;;;;;36.30;20.63;;;;;;;;;;5038977;28;20029;-60
2022/03/26 10:00:20;;;;;;;29.33;19.67;;;;;;;;;;5047824;28;20025;-59
2022/03/26 10:02:46;;;;;;;33.38;19.23;;;;;;;;;;5040403;28;20037;-59
2022/03/26 10:05:12;;;;;;;31.83;19.15;;;;;;;;;;5043875;28;20037;-60
2022/03/26 10:07:39;;;;;;;32.72;20.23;;;;;;;;;;5034500;28;20038;-59
2022/03/26 10:10:05;;;;;;;34.13;18.70;;;;;;;;;;5043256;28;20028;-60
2022/03/26 10:12:31;;;;;;;31.00;20.33;;;;;;;;;;5043571;28;20029;-60
2022/03/26 10:14:58;;;;;;;28.13;18.33;;;;;;;;;;5040169;28;20379;-59
2022/03/26 10:17:24;;;;;;;29.02;16.60;;;;;;;;;;5041029;28;20643;-59
2022/03/26 10:19:51;;;;;;;25.23;16.35;;;;;;;;;;5037815;28;20117;-58
2022/03/26 10:22:24;;;;;;;28.90;17.48;;;;;;;;;;5040872;28;20123;-58
2022/03/26 10:24:51;;;;;;;23.90;15.98;;;;;;;;;;5035044;28;20033;-58
2022/03/26 10:27:17;;;;;;;25.73;17.98;;;;;;;;;;5039140;28;20061;-58
2022/03/26 10:29:51;;;;;;;26.08;18.50;;;;;;;;;;5034789;28;20029;-59
2022/03/26 10:32:39;;;;;;;28.30;19.02;;;;;;;;;;5038188;28;20039;-58
2022/03/26 10:35:25;;;;;;;28.92;18.65;;;;;;;;;;5040602;28;20112;-58
2022/03/26 10:38:02;;;;;;;31.40;18.38;;;;;;;;;;5048618;28;20135;-58
2022/03/26 10:40:29;;;;;;;30.83;18.67;;;;;;;;;;5039705;28;20029;-58
2022/03/26 10:42:56;;;;;;;26.50;17.98;;;;;;;;;;5040420;28;20028;-58
2022/03/26 10:45:23;;;;;;;31.67;18.23;;;;;;;;;;5047435;28;20021;-59
2022/03/26 10:47:52;;;;;;;27.17;17.40;;;;;;;;;;5045825;28;20025;-59
2022/03/26 10:50:18;;;;;;;26.70;19.00;;;;;;;;;;5047646;28;20009;-59
2022/03/26 10:52:46;;;;;;;28.77;18.50;;;;;;;;;;5040702;28;20505;-60
2022/03/26 10:55:13;;;;;;;25.88;17.08;;;;;;;;;;5038377;28;20102;-60
2022/03/26 10:57:40;;;;;;;28.13;17.50;;;;;;;;;;5041557;28;20029;-59
2022/03/26 11:00:06;;;;;;;30.98;17.73;;;;;;;;;;5037602;28;20020;-60
2022/03/26 11:02:32;;;;;;;23.92;17.40;;;;;;;;;;5040232;28;20140;-60
2022/03/26 11:04:59;;;;;;;30.40;18.02;;;;;;;;;;5035725;28;20535;-60
2022/03/26 11:07:25;;;;;;;27.42;17.80;;;;;;;;;;5041686;28;20033;-60
2022/03/26 11:09:52;;;;;;;25.17;18.20;;;;;;;;;;5038834;28;20029;-60
2022/03/26 11:12:19;;;;;;;21.88;17.08;;;;;;;;;;5039085;28;20104;-60
2022/03/26 11:14:46;;;;;;;31.38;18.55;;;;;;;;;;5038910;28;20133;-60
2022/03/26 11:17:23;;;;;;;24.73;16.83;;;;;;;;;;5038410;28;20055;-60
2022/03/26 11:20:07;;;;;;;24.45;18.45;;;;;;;;;;5037480;28;20025;-59
2022/03/26 11:22:50;;;;;;;25.52;14.60;;;;;;;;;;5042667;28;20031;-58
2022/03/26 11:25:35;;;;;;;21.33;13.38;;;;;;;;;;5039500;28;20054;-59
2022/03/26 11:28:10;;;;;;;20.73;13.40;;;;;;;;;;5037519;28;20120;-59
2022/03/26 11:30:51;;;;;;;23.95;13.60;;;;;;;;;;5037323;28;20101;-59
2022/03/26 11:33:18;;;;;;;22.20;13.63;;;;;;;;;;5046286;28;20041;-58
2022/03/26 11:36:00;;;;;;;21.42;12.45;;;;;;;;;;5038060;28;20091;-59
2022/03/26 11:38:28;;;;;;;21.45;11.73;;;;;;;;;;5046320;28;20033;-58
2022/03/26 11:41:01;;;;;;;20.42;11.88;;;;;;;;;;5050189;28;20028;-59
2022/03/26 11:43:43;;;;;;;21.73;12.40;;;;;;;;;;5046999;28;20153;-59
2022/03/26 11:51:40;;;;;;;22.75;10.38;;;;;;;;;;5044534;28;20821;-60
2022/03/26 11:54:16;;;;;;;18.58;10.38;;;;;;;;;;5037081;28;20033;-59
2022/03/26 11:56:42;;;;;;;15.43;9.10;;;;;;;;;;5041661;28;20480;-60
2022/03/26 11:59:17;;;;;;;16.05;10.10;;;;;;;;;;5046999;28;20495;-59
2022/03/26 12:01:45;;;;;;;20.30;9.00;;;;;;;;;;5039053;28;20463;-60
2022/03/26 12:04:12;;;;;;;20.77;10.88;;;;;;;;;;5044487;28;20120;-59
2022/03/26 12:06:42;;;;;;;17.58;9.48;;;;;;;;;;5033057;28;20408;-60
2022/03/26 12:09:10;;;;;;;19.55;9.68;;;;;;;;;;5041251;28;20045;-59
2022/03/26 12:11:36;;;;;;;18.67;9.80;;;;;;;;;;5045699;28;20036;-59
2022/03/26 12:14:09;;;;;;;16.63;9.65;;;;;;;;;;5046290;28;20505;-59
2022/03/26 12:16:50;;;;;;;17.50;9.15;;;;;;;;;;5046727;28;20063;-59
2022/03/26 12:19:35;;;;;;;15.18;9.70;;;;;;;;;;5046300;28;20112;-59
2022/03/26 12:22:17;;;;;;;21.42;10.52;;;;;;;;;;5028008;28;20030;-59
2022/03/26 12:24:43;;;;;;;16.55;8.65;;;;;;;;;;5041984;28;20029;-59
2022/03/26 12:27:09;;;;;;;16.60;10.38;;;;;;;;;;5046944;28;20106;-59
2022/03/26 12:29:39;;;;;;;18.70;10.73;;;;;;;;;;5046151;28;20036;-59
2022/03/26 12:32:05;;;;;;;17.60;10.07;;;;;;;;;;5046285;28;20832;-59
2022/03/26 12:34:31;;;;;;;17.42;10.68;;;;;;;;;;5045991;28;20116;-59
2022/03/26 12:37:01;;;;;;;18.17;10.27;;;;;;;;;;5045965;28;20119;-59
2022/03/26 12:39:27;;;;;;;16.10;9.75;;;;;;;;;;5046619;28;20673;-59
2022/03/26 12:41:54;;;;;;;15.57;10.07;;;;;;;;;;5046974;28;20048;-59
2022/03/26 12:44:22;;;;;;;14.50;9.40;;;;;;;;;;5046821;28;20044;-60
2022/03/26 12:46:49;;;;;;;15.25;10.73;;;;;;;;;;5046692;28;20075;-59
2022/03/26 12:49:21;;;;;;;13.82;10.40;;;;;;;;;;5047035;28;20132;-59
2022/03/26 12:51:51;;;;;;;13.07;9.27;;;;;;;;;;5036085;28;20104;-59
2022/03/26 12:54:17;;;;;;;14.68;10.02;;;;;;;;;;5046713;28;20104;-60
2022/03/26 12:56:43;;;;;;;14.27;10.50;;;;;;;;;;5046522;28;20028;-60
2022/03/26 12:59:12;;;;;;;15.25;10.95;;;;;;;;;;5046980;28;20135;-59
2022/03/26 13:01:39;;;;;;;15.73;10.80;;;;;;;;;;5046634;28;20097;-59
2022/03/26 13:04:05;;;;;;;14.98;11.20;;;;;;;;;;5046745;28;20025;-59
2022/03/26 13:06:31;;;;;;;17.10;9.93;;;;;;;;;;5042948;28;20549;-60
2022/03/26 13:08:59;;;;;;;13.95;10.43;;;;;;;;;;5047473;28;20048;-59
2022/03/26 13:11:26;;;;;;;13.80;10.23;;;;;;;;;;5049386;28;20033;-59
2022/03/26 13:13:54;;;;;;;15.00;9.85;;;;;;;;;;5050546;28;20036;-60
2022/03/26 13:16:24;;;;;;;12.80;9.82;;;;;;;;;;5048333;28;20133;-60
2022/03/26 13:18:54;;;;;;;17.33;10.90;;;;;;;;;;5050562;28;20037;-60
2022/03/26 13:21:22;;;;;;;14.65;11.05;;;;;;;;;;5050307;28;20025;-60
2022/03/26 13:23:52;;;;;;;15.02;9.90;;;;;;;;;;5050997;28;20403;-60
2022/03/26 13:26:18;;;;;;;18.92;11.55;;;;;;;;;;5050627;28;20028;-60
2022/03/26 13:28:44;;;;;;;14.27;11.32;;;;;;;;;;5049740;28;20215;-60
2022/03/26 13:31:24;;;;;;;13.38;10.10;;;;;;;;;;5047621;28;20135;-60
2022/03/26 13:33:50;;;;;;;12.48;10.43;;;;;;;;;;5050507;28;20037;-60
2022/03/26 13:36:26;;;;;;;16.40;10.95;;;;;;;;;;5049562;28;20029;-60
2022/03/26 13:38:52;;;;;;;14.95;11.05;;;;;;;;;;5050120;28;20037;-60
2022/03/26 13:41:19;;;;;;;14.93;11.25;;;;;;;;;;5049747;28;20028;-60
2022/03/26 13:43:46;;;;;;;16.27;10.88;;;;;;;;;;5050155;28;20025;-64
2022/03/26 13:46:13;;;;;;;14.85;10.48;;;;;;;;;;5047753;28;20025;-61
2022/03/26 13:48:49;;;;;;;14.93;11.27;;;;;;;;;;5049811;28;20043;-60
2022/03/26 13:51:15;;;;;;;15.70;11.20;;;;;;;;;;5049361;28;20111;-60
2022/03/26 13:53:42;;;;;;;14.05;10.93;;;;;;;;;;5049831;28;20120;-60
2022/03/26 13:56:09;;;;;;;13.93;11.10;;;;;;;;;;5049894;28;20155;-61
2022/03/26 13:58:35;;;;;;;12.85;10.75;;;;;;;;;;5045649;28;20032;-60
2022/03/26 14:01:05;;;;;;;13.63;10.95;;;;;;;;;;5049165;28;20032;-60
2022/03/26 14:03:41;;;;;;;19.77;11.43;;;;;;;;;;5050396;28;20100;-60
2022/03/26 14:06:07;;;;;;;14.48;11.68;;;;;;;;;;5049838;28;20112;-61
2022/03/26 14:08:33;;;;;;;13.57;10.32;;;;;;;;;;5048800;28;20036;-60
2022/03/26 14:10:59;;;;;;;15.07;11.75;;;;;;;;;;5049733;28;20115;-60
2022/03/26 14:13:27;;;;;;;16.23;10.95;;;;;;;;;;5049220;28;20250;-60
2022/03/26 14:15:54;;;;;;;16.40;11.35;;;;;;;;;;5029599;28;20029;-60
2022/03/26 14:18:21;;;;;;;15.50;9.10;;;;;;;;;;5040355;28;20041;-60
2022/03/26 14:20:47;;;;;;;13.90;11.25;;;;;;;;;;5041585;28;20061;-60
2022/03/26 14:23:14;;;;;;;14.88;10.75;;;;;;;;;;5045928;28;20116;-60
2022/03/26 14:25:40;;;;;;;20.33;12.48;;;;;;;;;;5048952;28;20246;-61
2022/03/26 14:28:08;;;;;;;20.35;11.40;;;;;;;;;;5048944;28;20075;-60
2022/03/26 14:30:34;;;;;;;18.58;11.52;;;;;;;;;;5048447;28;20645;-60